Time;durP1;ratioP1;P1;durP2;ratioP2;P2;SDS_P1;SDS_P2;PMS_P1;PMS_P2;Temp;Humidity;BMP_temperature;BMP_pressure;BME280_temperature;BME280_humidity;BME280_pressure;Samples;Min_cycle;Max_cycle;Signal;HPM_P1;HPM_P2
2023/11/03 00:00:16;;;;;;;;;1.00;1.00;;;;;10.72;61.06;98002.19;5070336;28;71692;-76
2023/11/03 00:02:43;;;;;;;;;3.75;0.00;;;;;10.71;61.13;98007.50;5060853;28;45462;-76
2023/11/03 00:05:11;;;;;;;;;1.00;0.00;;;;;10.70;61.46;98008.47;5053827;28;45438;-75
2023/11/03 00:07:37;;;;;;;;;2.00;0.25;;;;;10.67;61.55;98009.50;5048339;28;45327;-74
2023/11/03 00:10:05;;;;;;;;;1.00;0.75;;;;;10.62;61.70;98011.63;5060144;28;45350;-75
2023/11/03 00:12:34;;;;;;;;;1.00;1.00;;;;;10.60;61.53;98009.09;5076876;28;46294;-75
2023/11/03 00:15:00;;;;;;;;;2.00;0.00;;;;;10.60;61.39;98022.19;5071152;28;45704;-76
2023/11/03 00:17:26;;;;;;;;;2.00;0.00;;;;;10.59;61.94;98017.09;5053033;28;45411;-75
2023/11/03 00:19:51;;;;;;;;;2.00;0.00;;;;;10.57;62.06;98014.56;5053579;28;45489;-75
2023/11/03 00:22:18;;;;;;;;;1.00;1.00;;;;;10.54;61.64;98011.34;5040831;28;75624;-77
2023/11/03 00:24:43;;;;;;;;;1.00;1.00;;;;;10.61;61.90;98025.66;5042741;28;45519;-75
2023/11/03 00:27:08;;;;;;;;;0.00;0.00;;;;;10.62;61.57;98017.72;5059394;28;68816;-75
2023/11/03 00:29:34;;;;;;;;;0.25;0.25;;;;;10.63;61.50;98019.34;5074300;28;45300;-75
2023/11/03 00:31:59;;;;;;;;;5.00;2.00;;;;;10.66;61.95;98017.47;5074965;28;45306;-76
2023/11/03 00:34:25;;;;;;;;;0.75;0.75;;;;;10.63;61.96;98016.75;5063114;28;73350;-76
2023/11/03 00:36:50;;;;;;;;;2.00;0.00;;;;;10.62;61.95;98020.31;5067873;28;58797;-76
2023/11/03 00:39:18;;;;;;;;;0.00;0.00;;;;;10.62;61.77;98027.31;5055326;28;58896;-76
2023/11/03 00:41:49;;;;;;;;;0.75;0.00;;;;;10.62;61.96;98027.31;5049429;28;45505;-76
2023/11/03 00:44:15;;;;;;;;;0.00;0.00;;;;;10.62;61.92;98033.41;5075839;28;45497;-75
2023/11/03 00:46:42;;;;;;;;;0.00;0.00;;;;;10.59;61.99;98036.22;5064103;28;45355;-75
2023/11/03 00:49:08;;;;;;;;;0.00;0.00;;;;;10.59;61.89;98041.44;5073482;28;45307;-76
2023/11/03 00:51:34;;;;;;;;;0.00;0.00;;;;;10.58;61.98;98031.91;5036028;28;45647;-75
2023/11/03 00:54:00;;;;;;;;;2.00;1.00;;;;;10.58;61.67;98031.91;5078540;28;45758;-74
2023/11/03 00:56:27;;;;;;;;;2.00;1.00;;;;;10.59;62.06;98040.63;5056390;28;45494;-75
2023/11/03 00:58:53;;;;;;;;;0.75;0.75;;;;;10.58;62.11;98046.78;5072028;28;45261;-75
2023/11/03 01:01:18;;;;;;;;;0.00;0.00;;;;;10.56;61.89;98035.59;5054257;28;47319;-75
2023/11/03 01:03:44;;;;;;;;;2.00;0.00;;;;;10.57;62.12;98045.97;5081843;28;45472;-74
2023/11/03 01:06:10;;;;;;;;;1.25;0.00;;;;;10.57;62.20;98045.09;5050659;28;45359;-75
2023/11/03 01:08:36;;;;;;;;;0.00;0.00;;;;;10.51;61.87;98040.31;5082388;28;45228;-75
2023/11/03 01:11:02;;;;;;;;;0.75;0.00;;;;;10.53;62.24;98047.09;5082469;28;45366;-75
2023/11/03 01:13:28;;;;;;;;;2.00;1.00;;;;;10.51;61.94;98045.53;5045436;28;45467;-77
2023/11/03 01:15:53;;;;;;;;;2.50;0.00;;;;;10.49;62.48;98050.88;5076697;28;45354;-76
2023/11/03 01:18:19;;;;;;;;;2.25;0.00;;;;;10.47;61.83;98046.72;5073343;28;72828;-74
2023/11/03 01:20:48;;;;;;;;;0.00;0.00;;;;;10.43;62.00;98057.38;5075697;28;74385;-75
2023/11/03 01:23:14;;;;;;;;;2.00;1.00;;;;;10.43;62.12;98054.75;5070384;28;45598;-75
2023/11/03 01:25:40;;;;;;;;;0.75;0.75;;;;;10.44;62.18;98055.59;5038646;28;45518;-75
2023/11/03 01:28:05;;;;;;;;;0.00;0.00;;;;;10.42;62.32;98052.25;5059688;28;47497;-75
2023/11/03 01:30:31;;;;;;;;;2.00;0.00;;;;;10.38;62.16;98056.03;5054229;28;45469;-76
2023/11/03 01:32:56;;;;;;;;;1.00;1.00;;;;;10.36;62.51;98044.84;5055269;28;45254;-75
2023/11/03 01:35:26;;;;;;;;;1.25;1.00;;;;;10.36;62.26;98055.31;5037046;28;45269;-76
2023/11/03 01:37:53;;;;;;;;;1.00;0.00;;;;;10.36;62.27;98053.53;5077998;28;45548;-76
2023/11/03 01:40:19;;;;;;;;;1.00;0.00;;;;;10.31;62.21;98049.53;5047609;28;45468;-75
2023/11/03 01:42:44;;;;;;;;;0.00;0.00;;;;;10.32;62.79;98066.88;5043439;28;47057;-75
2023/11/03 01:45:10;;;;;;;;;0.50;0.00;;;;;10.27;62.38;98064.59;5037173;28;45590;-76
2023/11/03 01:47:36;;;;;;;;;2.00;0.00;;;;;10.23;62.31;98055.25;5054062;28;45624;-76
2023/11/03 01:50:01;;;;;;;;;3.50;0.00;;;;;10.24;62.36;98060.38;5053508;28;47075;-76
2023/11/03 01:52:27;;;;;;;;;0.75;0.00;;;;;10.24;62.67;98059.56;5060119;28;45295;-75
2023/11/03 01:54:53;;;;;;;;;0.00;0.00;;;;;10.23;62.49;98068.31;5052325;28;58104;-75
2023/11/03 01:57:19;;;;;;;;;2.00;0.00;;;;;10.23;62.37;98069.19;5046172;28;45315;-76
2023/11/03 01:59:49;;;;;;;;;1.00;0.00;;;;;10.19;62.27;98066.88;5062936;28;62103;-76
2023/11/03 02:02:15;;;;;;;;;0.25;0.25;;;;;10.16;62.79;98074.91;5047656;28;45470;-75
2023/11/03 02:04:40;;;;;;;;;2.00;0.00;;;;;10.12;62.52;98065.63;5033456;28;51866;-76
2023/11/03 02:07:06;;;;;;;;;0.00;0.00;;;;;10.11;62.80;98066.53;5058262;28;47723;-75
2023/11/03 02:09:32;;;;;;;;;2.25;0.00;;;;;10.07;62.85;98074.63;5046168;28;46731;-75
2023/11/03 02:11:57;;;;;;;;;0.25;0.00;;;;;10.05;62.55;98059.97;5061970;28;45255;-75
2023/11/03 02:14:23;;;;;;;;;1.50;0.00;;;;;10.03;62.74;98061.84;5077085;28;45359;-76
2023/11/03 02:16:48;;;;;;;;;1.75;1.00;;;;;10.00;63.11;98064.66;5060887;28;45431;-75
2023/11/03 02:19:14;;;;;;;;;1.75;0.00;;;;;9.99;63.03;98070.84;5052959;28;45356;-75
2023/11/03 02:21:42;;;;;;;;;0.00;0.00;;;;;10.00;63.11;98068.09;5072474;28;45453;-76
2023/11/03 02:24:08;;;;;;;;;0.00;0.00;;;;;9.97;63.20;98067.47;5060059;28;45473;-76
2023/11/03 02:26:36;;;;;;;;;0.00;0.00;;;;;9.95;63.40;98051.94;5057109;28;45606;-75
2023/11/03 02:29:06;;;;;;;;;1.75;1.00;;;;;9.98;62.98;98069.16;5077643;28;45471;-76
2023/11/03 02:31:32;;;;;;;;;2.00;0.00;;;;;9.97;62.67;98063.09;5057297;28;45355;-75
2023/11/03 02:33:57;;;;;;;;;0.00;0.00;;;;;9.98;62.90;98056.94;5057437;28;45455;-74
2023/11/03 02:36:23;;;;;;;;;1.25;0.75;;;;;9.98;63.38;98069.16;5057719;28;45504;-76
2023/11/03 02:38:50;;;;;;;;;2.75;0.00;;;;;10.00;62.67;98068.09;5067860;28;46350;-76
2023/11/03 02:41:15;;;;;;;;;1.75;0.00;;;;;10.00;63.04;98062.06;5076049;28;45367;-75
2023/11/03 02:43:40;;;;;;;;;1.00;0.50;;;;;9.98;62.86;98061.31;5074430;28;45456;-75
2023/11/03 02:46:06;;;;;;;;;2.00;0.00;;;;;9.98;63.00;98058.72;5038131;28;62364;-75
2023/11/03 02:48:31;;;;;;;;;0.00;0.00;;;;;9.96;63.24;98056.19;5065084;28;45493;-75
2023/11/03 02:50:59;;;;;;;;;1.25;0.00;;;;;9.95;62.98;98057.16;5043833;28;45206;-75
2023/11/03 02:53:24;;;;;;;;;1.75;0.00;;;;;9.99;62.99;98063.00;5055371;28;45349;-75
2023/11/03 02:55:49;;;;;;;;;1.00;0.00;;;;;9.95;63.13;98065.00;5056043;28;45577;-74
2023/11/03 02:58:15;;;;;;;;;0.75;0.00;;;;;9.96;62.91;98073.66;5079502;28;46042;-75
2023/11/03 03:00:41;;;;;;;;;0.00;0.00;;;;;9.94;62.87;98072.94;5061970;28;45525;-75
2023/11/03 03:03:07;;;;;;;;;1.00;1.00;;;;;9.93;63.13;98068.63;5062013;28;45531;-76
2023/11/03 03:05:36;;;;;;;;;1.50;0.00;;;;;9.95;63.10;98082.44;5059443;28;45818;-76
2023/11/03 03:08:03;;;;;;;;;3.25;1.00;;;;;9.94;63.04;98075.53;5061334;28;45593;-76
2023/11/03 03:10:29;;;;;;;;;0.50;0.00;;;;;9.97;63.04;98088.38;5079268;28;45406;-76
2023/11/03 03:12:54;;;;;;;;;0.00;0.00;;;;;9.94;63.18;98086.81;5080293;28;46555;-76
2023/11/03 03:15:20;;;;;;;;;1.00;1.00;;;;;9.95;63.11;98079.81;5055903;28;54094;-75
2023/11/03 03:17:45;;;;;;;;;0.25;0.00;;;;;9.96;62.76;98086.72;5079626;28;72890;-76
2023/11/03 03:20:10;;;;;;;;;1.00;0.00;;;;;9.94;62.78;98080.78;5079537;28;45331;-75
2023/11/03 03:22:36;;;;;;;;;1.00;0.00;;;;;9.95;62.74;98083.28;5059639;28;45728;-75
2023/11/03 03:25:01;;;;;;;;;0.25;0.00;;;;;9.92;62.96;98082.66;5067982;28;45310;-75
2023/11/03 03:27:27;;;;;;;;;4.00;0.00;;;;;9.89;62.95;98081.91;5049158;28;45463;-76
2023/11/03 03:29:52;;;;;;;;;0.00;0.00;;;;;9.89;62.95;98081.06;5060051;28;47612;-74
2023/11/03 03:32:17;;;;;;;;;0.25;0.00;;;;;9.88;62.72;98082.03;5034112;28;70467;-74
2023/11/03 03:34:43;;;;;;;;;1.25;0.00;;;;;9.89;63.07;98087.13;5047879;28;67919;-74
2023/11/03 03:37:08;;;;;;;;;0.00;0.00;;;;;9.86;62.77;98081.25;5077577;28;73620;-75
2023/11/03 03:39:33;;;;;;;;;3.00;1.00;;;;;9.83;63.04;98081.50;5067030;28;72321;-75
2023/11/03 03:41:59;;;;;;;;;0.00;0.00;;;;;9.81;63.13;98094.66;5078562;28;67502;-75
2023/11/03 03:44:24;;;;;;;;;0.00;0.00;;;;;9.81;63.38;98096.41;5077101;28;45529;-75
2023/11/03 03:46:49;;;;;;;;;2.25;0.00;;;;;9.78;63.07;98094.84;5048159;28;52775;-75
2023/11/03 03:49:16;;;;;;;;;0.00;0.00;;;;;9.77;63.41;98100.16;5061187;28;45457;-74
2023/11/03 03:51:41;;;;;;;;;0.50;0.50;;;;;9.76;63.30;98094.13;5057094;28;67601;-76
2023/11/03 03:54:07;;;;;;;;;0.00;0.00;;;;;9.76;63.38;98104.56;5057776;28;73173;-75
2023/11/03 03:56:32;;;;;;;;;0.25;0.25;;;;;9.72;63.14;98097.88;5048282;28;46099;-75
2023/11/03 03:58:57;;;;;;;;;3.00;0.00;;;;;9.70;63.34;98094.50;5074188;28;72410;-76
2023/11/03 04:01:23;;;;;;;;;0.25;0.00;;;;;9.67;63.25;98095.56;5078576;28;69900;-76
2023/11/03 04:03:48;;;;;;;;;0.75;0.00;;;;;9.64;63.28;98094.91;5050219;28;46046;-76
2023/11/03 04:06:14;;;;;;;;;1.25;0.00;;;;;9.65;63.59;98099.19;5075459;28;45446;-76
2023/11/03 04:08:39;;;;;;;;;2.00;1.00;;;;;9.64;63.75;98098.34;5077962;28;60686;-76
2023/11/03 04:11:05;;;;;;;;;0.00;0.00;;;;;9.64;63.54;98111.41;5059721;28;45327;-75
2023/11/03 04:13:31;;;;;;;;;1.50;1.00;;;;;9.62;63.56;98108.06;5069640;28;45482;-76
2023/11/03 04:15:56;;;;;;;;;0.25;0.00;;;;;9.58;63.74;98110.97;5062257;28;47341;-76
2023/11/03 04:18:22;;;;;;;;;0.00;0.00;;;;;9.59;63.83;98113.47;5075828;28;62238;-75
2023/11/03 04:20:48;;;;;;;;;2.00;0.00;;;;;9.55;63.82;98116.41;5060354;28;46215;-76
2023/11/03 04:23:13;;;;;;;;;1.00;0.00;;;;;9.54;63.70;98114.72;5042083;28;46230;-76
2023/11/03 04:25:39;;;;;;;;;2.25;0.00;;;;;9.50;63.75;98114.09;5045001;28;66185;-76
2023/11/03 04:28:08;;;;;;;;;0.75;0.00;;;;;9.54;63.84;98123.38;5043086;28;45375;-76
2023/11/03 04:30:34;;;;;;;;;1.50;0.00;;;;;9.50;63.78;98124.53;5058785;28;47077;-76
2023/11/03 04:33:00;;;;;;;;;0.50;0.00;;;;;9.47;63.94;98119.50;5078132;28;45414;-76
2023/11/03 04:35:25;;;;;;;;;1.75;0.00;;;;;9.48;63.61;98116.78;5070660;28;46368;-76
2023/11/03 04:37:51;;;;;;;;;0.00;0.00;;;;;9.47;64.01;98124.72;5041448;28;45463;-75
2023/11/03 04:40:19;;;;;;;;;1.75;1.00;;;;;9.47;63.89;98129.94;5047337;28;68583;-75
2023/11/03 04:42:44;;;;;;;;;0.00;0.00;;;;;9.43;64.17;98121.47;5055432;28;45411;-76
2023/11/03 04:45:10;;;;;;;;;0.00;0.00;;;;;9.45;63.78;98131.81;5054264;28;46146;-76
2023/11/03 04:47:35;;;;;;;;;2.25;0.00;;;;;9.40;63.91;98118.22;5054229;28;45698;-76
2023/11/03 04:50:01;;;;;;;;;2.25;0.00;;;;;9.42;63.74;98127.66;5063843;28;45422;-76
2023/11/03 04:52:26;;;;;;;;;0.00;0.00;;;;;9.43;64.02;98129.31;5063923;28;45638;-75
2023/11/03 04:54:51;;;;;;;;;1.75;0.00;;;;;9.34;63.95;98119.47;5057294;28;53029;-75
2023/11/03 04:57:18;;;;;;;;;1.25;0.50;;;;;9.42;64.14;98127.66;5052668;28;45265;-74
2023/11/03 04:59:44;;;;;;;;;1.00;0.00;;;;;9.40;64.08;98128.66;5064237;28;45462;-75
2023/11/03 05:02:09;;;;;;;;;2.00;0.00;;;;;9.40;64.25;98124.31;5040328;28;45506;-75
2023/11/03 05:04:35;;;;;;;;;2.00;0.00;;;;;9.42;64.27;98130.25;5055260;28;45479;-75
2023/11/03 05:07:01;;;;;;;;;0.00;0.00;;;;;9.42;63.97;98126.78;5033780;28;69602;-75
2023/11/03 05:09:26;;;;;;;;;1.25;0.00;;;;;9.45;63.95;98126.59;5045234;28;45686;-75
2023/11/03 05:11:52;;;;;;;;;0.00;0.00;;;;;9.42;63.84;98121.56;5060210;28;45755;-75
2023/11/03 05:14:17;;;;;;;;;1.00;0.00;;;;;9.46;64.10;98130.91;5044377;28;47937;-75
2023/11/03 05:16:42;;;;;;;;;1.50;0.00;;;;;9.49;64.06;98141.13;5052611;28;45329;-74
2023/11/03 05:19:08;;;;;;;;;0.00;0.00;;;;;9.48;63.91;98129.84;5039468;28;45301;-74
2023/11/03 05:21:33;;;;;;;;;2.00;0.00;;;;;9.48;63.78;98144.69;5079057;28;45506;-75
2023/11/03 05:23:59;;;;;;;;;1.50;0.00;;;;;9.41;63.70;98135.56;5044423;28;47481;-75
2023/11/03 05:26:24;;;;;;;;;0.50;0.00;;;;;9.44;63.93;98140.59;5045563;28;45381;-75
2023/11/03 05:28:51;;;;;;;;;1.75;0.00;;;;;9.47;63.89;98145.59;5047405;28;45409;-75
2023/11/03 05:31:17;;;;;;;;;2.00;1.00;;;;;9.43;63.85;98149.34;5059979;28;45458;-75
2023/11/03 05:33:42;;;;;;;;;2.00;1.00;;;;;9.44;64.02;98157.09;5052684;28;56853;-74
2023/11/03 05:36:11;;;;;;;;;0.00;0.00;;;;;9.37;64.45;98161.03;5061184;28;45347;-74
2023/11/03 05:38:37;;;;;;;;;1.25;1.00;;;;;9.38;64.22;98160.06;5046340;28;45379;-75
2023/11/03 05:41:02;;;;;;;;;1.50;0.25;;;;;9.32;64.10;98150.88;5051052;28;45466;-75
2023/11/03 05:43:29;;;;;;;;;2.75;1.00;;;;;9.30;64.10;98160.56;5075937;28;45307;-74
2023/11/03 05:45:55;;;;;;;;;2.25;1.00;;;;;9.25;64.03;98154.81;5055331;28;45807;-75
2023/11/03 05:48:20;;;;;;;;;0.00;0.00;;;;;9.25;64.01;98156.59;5069015;28;67604;-75
2023/11/03 05:50:45;;;;;;;;;0.50;0.50;;;;;9.26;64.89;98166.06;5058644;28;45359;-75
2023/11/03 05:53:11;;;;;;;;;0.00;0.00;;;;;9.22;64.71;98162.81;5043267;28;75803;-75
2023/11/03 05:55:36;;;;;;;;;0.00;0.00;;;;;9.16;64.62;98165.00;5046425;28;63669;-75
2023/11/03 05:58:02;;;;;;;;;1.00;1.00;;;;;9.12;64.56;98162.56;5040778;28;45273;-75
2023/11/03 06:00:29;;;;;;;;;3.25;1.00;;;;;9.07;64.52;98150.75;5060285;28;45312;-75
2023/11/03 06:02:55;;;;;;;;;2.00;0.25;;;;;9.09;64.89;98159.31;5035758;28;47034;-75
2023/11/03 06:05:20;;;;;;;;;2.75;0.75;;;;;9.15;64.69;98168.53;5054113;28;45397;-75
2023/11/03 06:07:45;;;;;;;;;0.25;0.00;;;;;9.13;64.56;98169.44;5043807;28;55247;-75
2023/11/03 06:10:13;;;;;;;;;0.00;0.00;;;;;9.12;63.99;98174.78;5070881;28;45556;-75
2023/11/03 06:12:39;;;;;;;;;2.00;0.00;;;;;9.12;64.81;98177.41;5053796;28;47311;-75
2023/11/03 06:15:05;;;;;;;;;1.00;0.25;;;;;9.10;64.72;98177.50;5039955;28;45482;-75
2023/11/03 06:17:31;;;;;;;;;1.25;0.75;;;;;9.10;64.75;98180.09;5072748;28;45177;-74
2023/11/03 06:19:56;;;;;;;;;2.75;0.00;;;;;9.11;64.77;98183.53;5043741;28;45503;-75
2023/11/03 06:22:22;;;;;;;;;2.50;0.00;;;;;9.10;64.77;98177.50;5077552;28;46053;-75
2023/11/03 06:24:47;;;;;;;;;2.00;0.25;;;;;9.10;64.94;98192.28;5058612;28;45443;-75
2023/11/03 06:27:13;;;;;;;;;2.00;1.00;;;;;9.10;64.80;98195.75;5060522;28;67958;-75
2023/11/03 06:29:38;;;;;;;;;2.25;1.00;;;;;9.08;65.09;98188.94;5045145;28;45725;-75
2023/11/03 06:32:04;;;;;;;;;1.00;0.00;;;;;9.08;64.61;98189.81;5056023;28;74775;-75
2023/11/03 06:34:29;;;;;;;;;0.25;0.00;;;;;9.09;64.61;98190.63;5075168;28;45278;-75
2023/11/03 06:36:55;;;;;;;;;4.00;0.50;;;;;9.10;65.05;98206.19;5062298;28;60463;-75
2023/11/03 06:39:20;;;;;;;;;1.00;0.50;;;;;9.08;65.03;98199.38;5061104;28;73369;-74
2023/11/03 06:41:45;;;;;;;;;1.50;1.00;;;;;9.04;65.19;98198.72;5060682;28;47081;-75
2023/11/03 06:44:12;;;;;;;;;1.00;0.25;;;;;9.03;64.99;98198.81;5058708;28;45679;-75
2023/11/03 06:46:38;;;;;;;;;3.00;0.25;;;;;9.05;64.77;98205.63;5067294;28;45409;-78
2023/11/03 06:49:05;;;;;;;;;1.00;1.00;;;;;9.05;64.84;98207.41;5058334;28;45529;-78
2023/11/03 06:51:30;;;;;;;;;2.75;0.00;;;;;9.04;64.77;98211.75;5080565;28;46164;-76
2023/11/03 06:53:55;;;;;;;;;3.75;1.00;;;;;9.06;65.03;98217.72;5080060;28;45419;-79
2023/11/03 06:56:21;;;;;;;;;4.75;1.00;;;;;9.05;64.88;98225.66;5078242;28;45508;-77
2023/11/03 06:58:46;;;;;;;;;1.50;1.00;;;;;9.05;64.97;98236.09;5073877;28;45234;-76
2023/11/03 07:01:12;;;;;;;;;1.50;0.00;;;;;9.04;64.97;98235.25;5061895;28;45321;-75
2023/11/03 07:03:37;;;;;;;;;2.00;0.00;;;;;9.04;65.02;98240.47;5080423;28;58728;-76
2023/11/03 07:06:03;;;;;;;;;1.50;0.00;;;;;9.05;64.92;98246.53;5043041;28;45372;-76
2023/11/03 07:08:30;;;;;;;;;2.25;0.25;;;;;9.04;65.17;98244.84;5044616;28;45539;-75
2023/11/03 07:10:55;;;;;;;;;1.50;1.00;;;;;9.03;65.19;98235.34;5061664;28;46117;-76
2023/11/03 07:13:21;;;;;;;;;5.50;2.50;;;;;9.04;65.13;98242.25;5058994;28;59913;-75
2023/11/03 07:15:46;;;;;;;;;1.75;1.00;;;;;9.08;65.12;98248.94;5040920;28;45547;-75
2023/11/03 07:18:12;;;;;;;;;0.75;0.75;;;;;9.07;65.19;98244.66;5066295;28;58622;-78
2023/11/03 07:20:37;;;;;;;;;0.00;0.00;;;;;9.07;65.14;98250.72;5029767;28;47682;-71
2023/11/03 07:23:02;;;;;;;;;0.50;0.50;;;;;9.13;64.98;98252.94;5073588;28;73123;-75
2023/11/03 07:25:28;;;;;;;;;1.25;1.25;;;;;9.12;65.25;98248.66;5075405;28;45446;-74
2023/11/03 07:27:53;;;;;;;;;3.00;1.00;;;;;9.17;64.93;98255.38;5043014;28;45662;-77
2023/11/03 07:30:19;;;;;;;;;1.75;1.00;;;;;9.20;64.88;98261.25;5059625;28;47335;-74
2023/11/03 07:32:45;;;;;;;;;4.00;0.00;;;;;9.24;65.17;98249.69;5074934;28;45315;-72
2023/11/03 07:35:14;;;;;;;;;1.50;1.00;;;;;9.30;64.87;98253.69;5073562;28;45399;-72
2023/11/03 07:37:41;;;;;;;;;4.50;1.25;;;;;9.36;64.93;98257.69;5034570;28;45408;-73
2023/11/03 07:40:07;;;;;;;;;1.00;0.75;;;;;9.39;64.85;98253.13;5071624;28;45422;-72
2023/11/03 07:42:32;;;;;;;;;1.50;1.00;;;;;9.45;64.58;98251.91;5075513;28;45351;-72
2023/11/03 07:44:58;;;;;;;;;3.25;1.00;;;;;9.50;64.63;98258.50;5050389;28;45245;-73
2023/11/03 07:47:23;;;;;;;;;2.50;1.00;;;;;9.55;64.37;98253.00;5061442;28;46505;-70
2023/11/03 07:49:49;;;;;;;;;0.25;0.25;;;;;9.59;64.55;98261.47;5073096;28;47037;-72
2023/11/03 07:52:15;;;;;;;;;1.50;1.00;;;;;9.60;64.53;98257.94;5078544;28;45414;-77
2023/11/03 07:54:41;;;;;;;;;5.50;2.00;;;;;9.67;64.59;98261.84;5074380;28;45436;-75
2023/11/03 07:57:06;;;;;;;;;2.00;1.00;;;;;9.76;64.25;98266.50;5061243;28;45611;-72
2023/11/03 07:59:32;;;;;;;;;6.25;1.00;;;;;9.84;64.44;98261.63;5078472;28;46096;-73
2023/11/03 08:01:57;;;;;;;;;6.00;0.75;;;;;9.83;63.91;98249.50;5075415;28;45498;-74
2023/11/03 08:04:23;;;;;;;;;2.50;1.25;;;;;9.92;63.83;98261.13;5076455;28;53772;-74
2023/11/03 08:06:49;;;;;;;;;2.25;1.00;;;;;9.99;63.85;98265.00;5047377;28;45354;-77
2023/11/03 08:09:14;;;;;;;;;8.75;7.00;;;;;10.04;63.57;98260.34;5039593;28;47274;-76
2023/11/03 08:11:40;;;;;;;;;5.50;2.00;;;;;10.12;63.80;98262.44;5072687;28;45430;-73
2023/11/03 08:14:06;;;;;;;;;1.00;1.00;;;;;10.19;63.48;98270.72;5059916;28;45524;-71
2023/11/03 08:16:31;;;;;;;;;4.50;2.00;;;;;10.22;63.59;98266.13;5055392;28;69711;-73
2023/11/03 08:18:58;;;;;;;;;4.00;1.75;;;;;10.29;63.26;98278.78;5058095;28;61280;-73
2023/11/03 08:21:26;;;;;;;;;3.00;2.00;;;;;10.31;63.46;98269.97;5071628;28;45800;-73
2023/11/03 08:23:51;;;;;;;;;2.25;1.00;;;;;10.37;63.55;98272.16;5036590;28;45502;-73
2023/11/03 08:26:17;;;;;;;;;4.00;1.50;;;;;10.40;62.88;98271.97;5054584;28;62890;-74
2023/11/03 08:28:43;;;;;;;;;0.00;0.00;;;;;10.43;63.04;98274.38;5076529;28;45620;-72
2023/11/03 08:31:09;;;;;;;;;0.50;0.50;;;;;10.47;62.80;98275.03;5050453;28;45642;-73
2023/11/03 08:33:35;;;;;;;;;3.25;1.00;;;;;10.45;62.99;98267.28;5060424;28;45509;-78
2023/11/03 08:36:00;;;;;;;;;2.00;0.00;;;;;10.52;62.95;98274.72;5073573;28;53872;-79
2023/11/03 08:38:25;;;;;;;;;1.75;0.75;;;;;10.51;62.91;98268.63;5060109;28;45145;-72
2023/11/03 08:40:53;;;;;;;;;5.75;1.75;;;;;10.59;62.61;98286.44;5055975;28;64430;-74
2023/11/03 08:43:20;;;;;;;;;1.25;1.00;;;;;10.59;62.66;98286.44;5049076;28;45935;-75
2023/11/03 08:45:46;;;;;;;;;3.75;1.00;;;;;10.59;62.60;98292.50;5066628;28;45575;-74
2023/11/03 08:48:12;;;;;;;;;2.25;1.00;;;;;10.60;62.89;98291.56;5054338;28;45745;-73
2023/11/03 08:50:38;;;;;;;;;2.25;1.00;;;;;10.54;62.70;98291.16;5075472;28;45431;-74
2023/11/03 08:53:03;;;;;;;;;5.00;2.00;;;;;10.56;62.70;98287.47;5048751;28;45202;-73
2023/11/03 08:55:29;;;;;;;;;1.00;1.00;;;;;10.57;62.65;98288.31;5054006;28;45610;-73
2023/11/03 08:57:57;;;;;;;;;1.00;1.00;;;;;10.60;62.77;98302.00;5049405;28;48313;-76
2023/11/03 09:00:22;;;;;;;;;3.00;1.25;;;;;10.60;62.74;98301.19;5060823;28;45351;-79
2023/11/03 09:02:48;;;;;;;;;3.00;2.00;;;;;10.60;62.41;98299.41;5076474;28;45444;-78
2023/11/03 09:05:13;;;;;;;;;1.25;1.00;;;;;10.58;62.65;98303.91;5057276;28;45374;-78
2023/11/03 09:07:40;;;;;;;;;3.00;1.00;;;;;10.56;62.77;98289.25;5076916;28;46343;-77
2023/11/03 09:10:07;;;;;;;;;4.25;1.00;;;;;10.59;62.84;98297.75;5052147;28;45927;-75
2023/11/03 09:12:34;;;;;;;;;2.00;1.00;;;;;10.60;62.20;98288.09;5047465;28;45544;-75
2023/11/03 09:15:00;;;;;;;;;1.75;0.50;;;;;10.59;62.21;98284.66;5074309;28;45499;-81
2023/11/03 09:17:27;;;;;;;;;0.00;0.00;;;;;10.59;62.22;98286.44;5078783;28;45623;-85
2023/11/03 09:19:53;;;;;;;;;1.75;1.75;;;;;10.58;62.35;98290.81;5073801;28;45311;-80
2023/11/03 09:22:18;;;;;;;;;3.00;2.00;;;;;10.59;62.10;98294.28;5057534;28;45613;-75
2023/11/03 09:24:43;;;;;;;;;1.25;1.00;;;;;10.59;62.34;98297.75;5057210;28;45454;-74
2023/11/03 09:27:09;;;;;;;;;4.25;1.00;;;;;10.60;62.18;98296.78;5051489;28;46169;-74
2023/11/03 09:29:34;;;;;;;;;1.00;1.00;;;;;10.59;61.99;98297.75;5050763;28;45399;-75
2023/11/03 09:32:00;;;;;;;;;1.25;0.50;;;;;10.60;62.22;98296.78;5074471;28;45505;-75
2023/11/03 09:34:25;;;;;;;;;1.00;1.00;;;;;10.66;62.16;98305.16;5078455;28;45449;-74
2023/11/03 09:36:51;;;;;;;;;1.50;1.00;;;;;10.73;62.26;98314.28;5036319;28;46587;-74
2023/11/03 09:39:16;;;;;;;;;2.00;2.00;;;;;10.79;62.01;98314.72;5079230;28;68751;-74
2023/11/03 09:41:58;;;;;;;;;1.50;1.00;;;;;10.86;62.17;98323.00;5046406;28;66033;-74
2023/11/03 09:44:25;;;;;;;;;1.00;1.00;;;;;10.95;61.66;98322.38;5053326;28;45403;-73
2023/11/03 09:46:53;;;;;;;;;2.75;1.00;;;;;11.00;61.37;98319.47;5061895;28;47100;-74
2023/11/03 09:49:19;;;;;;;;;2.00;1.50;;;;;10.99;61.62;98325.63;5056657;28;45435;-75
2023/11/03 09:51:47;;;;;;;;;1.25;1.25;;;;;11.01;61.40;98332.44;5080105;28;45366;-74
2023/11/03 09:54:12;;;;;;;;;0.75;0.75;;;;;11.04;61.83;98335.78;5079817;28;45580;-74
2023/11/03 09:56:43;;;;;;;;;1.00;1.00;;;;;11.02;61.45;98336.72;5078189;28;45499;-76
2023/11/03 09:59:09;;;;;;;;;1.75;0.25;;;;;11.08;61.36;98335.47;5082228;28;45403;-75
2023/11/03 10:01:37;;;;;;;;;1.00;0.25;;;;;11.11;61.09;98327.41;5063343;28;45443;-74
2023/11/03 10:04:03;;;;;;;;;1.00;1.00;;;;;11.16;61.41;98342.81;5054887;28;45457;-74
2023/11/03 10:06:28;;;;;;;;;37.75;29.25;;;;;11.28;61.59;98349.84;5055383;28;47508;-76
2023/11/03 10:08:58;;;;;;;;;50.25;38.50;;;;;11.38;61.10;98347.41;5071160;28;63297;-76
2023/11/03 10:11:23;;;;;;;;;0.00;0.00;;;;;11.45;61.05;98347.84;5058175;28;45388;-75
2023/11/03 10:13:48;;;;;;;;;3.75;1.00;;;;;11.49;61.15;98338.81;5057354;28;73158;-76
2023/11/03 10:16:14;;;;;;;;;2.50;1.00;;;;;11.50;60.94;98330.03;5053889;28;47843;-75
2023/11/03 10:18:39;;;;;;;;;4.00;2.00;;;;;11.63;60.58;98340.47;5079724;28;62874;-74
2023/11/03 10:21:08;;;;;;;;;5.75;1.75;;;;;11.67;60.45;98336.69;5058524;28;59743;-75
2023/11/03 10:23:37;;;;;;;;;1.00;0.00;;;;;11.72;60.38;98340.69;5075552;28;45524;-73
2023/11/03 10:26:06;;;;;;;;;1.00;1.00;;;;;11.73;60.17;98342.34;5058968;28;47770;-75
2023/11/03 10:28:32;;;;;;;;;1.50;1.50;;;;;11.76;58.59;98346.53;5076585;28;45934;-75
2023/11/03 10:30:59;;;;;;;;;1.75;1.00;;;;;11.78;59.60;98353.34;5062988;28;45268;-73
2023/11/03 10:33:25;;;;;;;;;0.75;0.75;;;;;11.80;59.94;98345.38;5042265;28;45494;-75
2023/11/03 10:35:52;;;;;;;;;1.75;0.00;;;;;11.83;59.75;98337.31;5080864;28;45526;-76
2023/11/03 10:38:18;;;;;;;;;2.50;2.00;;;;;11.87;59.64;98341.38;5062952;28;45731;-74
2023/11/03 10:40:45;;;;;;;;;3.00;1.75;;;;;11.93;59.50;98348.00;5062145;28;45256;-75
2023/11/03 10:43:15;;;;;;;;;0.25;0.25;;;;;11.92;59.17;98341.91;5076858;28;45235;-74
2023/11/03 10:45:45;;;;;;;;;1.00;1.00;;;;;11.91;59.73;98337.59;5079037;28;45545;-74
2023/11/03 10:48:50;;;;;;;;;1.00;1.00;;;;;12.10;59.40;98331.91;5081385;28;45327;-75
2023/11/03 10:51:56;;;;;;;;;1.00;1.00;;;;;12.19;58.33;98330.41;4963073;28;45702;-76
2023/11/03 10:54:29;;;;;;;;;2.50;0.75;;;;;12.25;58.89;98336.97;4992361;28;45414;-75
2023/11/03 10:56:56;;;;;;;;;1.00;0.50;;;;;12.20;58.77;98334.72;5042778;28;45347;-75
2023/11/03 10:59:21;;;;;;;;;4.50;2.00;;;;;12.20;58.81;98337.34;5080556;28;45774;-75
2023/11/03 11:02:03;;;;;;;;;3.00;1.00;;;;;12.25;58.90;98340.47;5049962;28;45368;-75
2023/11/03 11:04:35;;;;;;;;;2.75;1.00;;;;;12.27;58.60;98337.69;5072800;28;45633;-74
2023/11/03 11:07:05;;;;;;;;;1.00;1.00;;;;;12.32;58.39;98330.34;5061923;28;47423;-74
2023/11/03 11:09:48;;;;;;;;;3.75;1.50;;;;;12.42;58.69;98331.34;5061844;28;45951;-75
2023/11/03 11:12:14;;;;;;;;;1.00;1.00;;;;;12.52;58.88;98328.91;5061885;28;45423;-75
2023/11/03 11:14:42;;;;;;;;;2.25;1.50;;;;;12.61;57.92;98330.00;5074899;28;45492;-75
2023/11/03 11:17:09;;;;;;;;;1.00;0.00;;;;;12.65;58.08;98315.69;5056731;28;47632;-74
2023/11/03 11:19:45;;;;;;;;;3.25;2.00;;;;;12.71;58.15;98323.97;5076796;28;45388;-76
2023/11/03 11:22:21;;;;;;;;;14.25;9.25;;;;;12.81;58.56;98334.59;5059827;28;45542;-76
2023/11/03 11:24:47;;;;;;;;;14.25;9.50;;;;;12.89;57.79;98327.00;5060829;28;45582;-75
2023/11/03 11:27:24;;;;;;;;;5.75;5.25;;;;;12.91;58.33;98324.25;5047212;28;46575;-75
2023/11/03 11:30:01;;;;;;;;;4.50;2.50;;;;;12.99;57.84;98329.75;5049053;28;45416;-74
2023/11/03 11:32:26;;;;;;;;;3.50;2.00;;;;;13.00;57.84;98326.19;5072899;28;45551;-76